Station Historical Data
Daily Summary for January 15, 2017 Units:  Metric    English   Both
« Previous Day
Next Day »
Daily Weekly Monthly Yearly Custom
  High: Low: Average:
Temperature: -0.1 °C -6.7 °C -3.6 °C
Dew Point: -5.1 °C -8.4 °C -6.7 °C
Humidity: 88% 65% 80%
Wind Speed: 12.9km/h 0km/h 2.6km/h
Wind Gust: 14.5km/h - -
Wind- - WSW
Pressure: 1031.7 hPa 1029 hPa -
Precipitation: 0 mm    
Historical Graphs
 
 
Tabular Data for January 15, 2017
Time Temperature Dew Point Pressure Wind Wind Speed Wind Gust Humidity Rainfall Rate (Hourly)
00:04 -4 °C -7.4 °C 1029.3 hPa West 3.2 km/h 9.7 km/h 77% 0 mm
00:09 -4 °C -7.4 °C 1029.3 hPa West 4.8 km/h 9.7 km/h 77% 0 mm
00:14 -4 °C -7.3 °C 1029.3 hPa West 4.8 km/h 11.3 km/h 78% 0 mm
00:19 -4 °C -7.3 °C 1029.3 hPa West 4.8 km/h 11.3 km/h 78% 0 mm
00:24 -3.9 °C -7.2 °C 1029.3 hPa West 1.6 km/h 9.7 km/h 78% 0 mm
00:29 -3.9 °C -7.2 °C 1029.3 hPa WSW 3.2 km/h 12.9 km/h 78% 0 mm
00:34 -3.9 °C -7.2 °C 1029.3 hPa West 4.8 km/h 11.3 km/h 78% 0 mm
00:39 -3.9 °C -7.2 °C 1029.3 hPa WSW 4.8 km/h 12.9 km/h 78% 0 mm
00:44 -3.9 °C -7.2 °C 1029.3 hPa WSW 4.8 km/h 11.3 km/h 78% 0 mm
00:49 -3.9 °C -7.2 °C 1029.3 hPa SW 4.8 km/h 14.5 km/h 78% 0 mm
00:54 -3.9 °C -7.1 °C 1029.3 hPa West 6.4 km/h 14.5 km/h 79% 0 mm
00:59 -3.9 °C -7 °C 1029.3 hPa West 6.4 km/h 12.9 km/h 79% 0 mm
01:05 -3.9 °C -7 °C 1029.3 hPa West 6.4 km/h 11.3 km/h 79% 0 mm
01:10 -3.9 °C -7.1 °C 1029.3 hPa WSW 6.4 km/h 12.9 km/h 79% 0 mm
01:15 -3.8 °C -6.9 °C 1029.3 hPa West 6.4 km/h 12.9 km/h 79% 0 mm
01:20 -3.9 °C -7 °C 1029.3 hPa West 11.3 km/h 12.9 km/h 79% 0 mm
01:25 -3.9 °C -7 °C 1029.3 hPa WSW 4.8 km/h 14.5 km/h 79% 0 mm
01:30 -3.9 °C -6.9 °C 1029.3 hPa WSW 6.4 km/h 14.5 km/h 80% 0 mm
01:35 -4 °C -6.9 °C 1029.3 hPa West 3.2 km/h 8 km/h 80% 0 mm
01:40 -4.1 °C -7.1 °C 1029.3 hPa WSW 4.8 km/h 9.7 km/h 80% 0 mm
01:45 -4.1 °C -7.1 °C 1029.3 hPa WSW 3.2 km/h 9.7 km/h 80% 0 mm
01:50 -4.2 °C -7 °C 1029.3 hPa West 4.8 km/h 9.7 km/h 81% 0 mm
01:55 -4.2 °C -7 °C 1029 hPa West 4.8 km/h 9.7 km/h 81% 0 mm
02:00 -4.3 °C -7.1 °C 1029.3 hPa WSW 3.2 km/h 6.4 km/h 81% 0 mm
02:05 -4.3 °C -7.1 °C 1029.3 hPa West 1.6 km/h 8 km/h 81% 0 mm
02:10 -4.4 °C -7 °C 1029.3 hPa West 3.2 km/h 9.7 km/h 82% 0 mm
02:15 -4.4 °C -7 °C 1029.3 hPa WSW 3.2 km/h 9.7 km/h 82% 0 mm
02:20 -4.5 °C -7.1 °C 1029.7 hPa WSW 3.2 km/h 8 km/h 82% 0 mm
02:25 -4.6 °C -7.2 °C 1029.7 hPa West 3.2 km/h 8 km/h 82% 0 mm
02:30 -4.6 °C -7.1 °C 1029.7 hPa West 3.2 km/h 9.7 km/h 83% 0 mm
02:35 -4.6 °C -7.1 °C 1029.7 hPa WSW 1.6 km/h 4.8 km/h 83% 0 mm
02:40 -4.7 °C -7.2 °C 1029.7 hPa WSW 1.6 km/h 8 km/h 83% 0 mm
02:45 -4.7 °C -7.2 °C 1029.7 hPa WSW 3.2 km/h 6.4 km/h 83% 0 mm
02:50 -4.7 °C -7.2 °C 1029.7 hPa WSW 3.2 km/h 6.4 km/h 83% 0 mm
02:55 -4.8 °C -7.1 °C 1029.7 hPa West 3.2 km/h 6.4 km/h 84% 0 mm
03:00 -4.7 °C -7 °C 1029.7 hPa West 3.2 km/h 6.4 km/h 84% 0 mm
03:05 -4.8 °C -7.1 °C 1029.7 hPa WSW 4.8 km/h 6.4 km/h 84% 0 mm
03:10 -4.8 °C -7.1 °C 1029.7 hPa WSW 1.6 km/h 6.4 km/h 84% 0 mm
03:15 -4.8 °C -7.1 °C 1029.7 hPa West 1.6 km/h 4.8 km/h 84% 0 mm
03:20 -4.9 °C -7.2 °C 1029.7 hPa WSW 3.2 km/h 8 km/h 84% 0 mm
03:25 -4.9 °C -7.2 °C 1029.7 hPa WSW 3.2 km/h 8 km/h 84% 0 mm
03:30 -4.8 °C -7.1 °C 1029.7 hPa West 1.6 km/h 9.7 km/h 84% 0 mm
03:35 -4.8 °C -7.1 °C 1029.7 hPa West 1.6 km/h 9.7 km/h 84% 0 mm
03:40 -4.9 °C -7.2 °C 1029.7 hPa WSW 4.8 km/h 8 km/h 84% 0 mm
03:45 -4.9 °C -7.1 °C 1029.3 hPa WSW 1.6 km/h 4.8 km/h 85% 0 mm
03:50 -4.9 °C -7.1 °C 1029.3 hPa WSW 3.2 km/h 8 km/h 85% 0 mm
03:55 -4.9 °C -7.1 °C 1029.3 hPa WSW 3.2 km/h 8 km/h 85% 0 mm
04:00 -5 °C -7.1 °C 1029.3 hPa WSW 3.2 km/h 6.4 km/h 85% 0 mm
04:05 -5.1 °C -7.2 °C 1029.3 hPa WSW 3.2 km/h 6.4 km/h 85% 0 mm
04:10 -5.2 °C -7.3 °C 1029.3 hPa Calm   4.8 km/h 85% 0 mm
04:15 -5.3 °C -7.4 °C 1029.3 hPa WSW 1.6 km/h 3.2 km/h 85% 0 mm
04:20 -5.4 °C -7.6 °C 1029.3 hPa Calm   3.2 km/h 85% 0 mm
04:25 -5.7 °C -7.8 °C 1029 hPa WSW 1.6 km/h 3.2 km/h 85% 0 mm
04:30 -5.8 °C -7.7 °C 1029.3 hPa WSW 1.6 km/h 4.8 km/h 86% 0 mm
04:35 -5.7 °C -7.7 °C 1029.3 hPa WSW 1.6 km/h 4.8 km/h 86% 0 mm
04:39 -5.8 °C -7.6 °C 1029.3 hPa Calm   3.2 km/h 87% 0 mm
04:45 -5.7 °C -7.6 °C 1029.3 hPa Calm     87% 0 mm
04:50 -5.7 °C -7.6 °C 1029.3 hPa West 1.6 km/h 4.8 km/h 87% 0 mm
04:54 -5.8 °C -7.6 °C 1029.7 hPa West 1.6 km/h 4.8 km/h 87% 0 mm
05:00 -5.8 °C -7.7 °C 1029.7 hPa West 1.6 km/h 4.8 km/h 87% 0 mm
05:05 -5.9 °C -7.8 °C 1029.7 hPa Calm   1.6 km/h 87% 0 mm
05:10 -6 °C -7.8 °C 1029.7 hPa Calm   1.6 km/h 87% 0 mm
05:15 -5.9 °C -7.6 °C 1029.7 hPa Calm   4.8 km/h 88% 0 mm
05:20 -5.8 °C -7.5 °C 1029.7 hPa Calm   4.8 km/h 88% 0 mm
05:24 -5.8 °C -7.7 °C 1029.7 hPa WSW 1.6 km/h 4.8 km/h 87% 0 mm
05:30 -5.8 °C -7.7 °C 1029.7 hPa WSW 1.6 km/h 4.8 km/h 87% 0 mm
05:34 -5.8 °C -7.7 °C 1029.7 hPa WSW 1.6 km/h 4.8 km/h 87% 0 mm
05:39 -5.9 °C -7.7 °C 1030 hPa Calm   4.8 km/h 87% 0 mm
05:45 -5.8 °C -7.7 °C 1030 hPa West 1.6 km/h 4.8 km/h 87% 0 mm
05:50 -5.8 °C -7.7 °C 1030 hPa West 1.6 km/h 6.4 km/h 87% 0 mm
05:55 -5.8 °C -7.7 °C 1030 hPa Calm   4.8 km/h 87% 0 mm
05:59 -5.8 °C -7.7 °C 1030 hPa Calm   4.8 km/h 87% 0 mm
06:05 -5.8 °C -7.7 °C 1030 hPa Calm     87% 0 mm
06:10 -5.9 °C -7.8 °C 1030.4 hPa Calm     87% 0 mm
06:15 -5.9 °C -7.7 °C 1030 hPa Calm     87% 0 mm
06:20 -5.9 °C -7.8 °C 1030.4 hPa Calm     87% 0 mm
06:25 -5.8 °C -7.7 °C 1030.4 hPa Calm     87% 0 mm
06:29 -5.8 °C -7.6 °C 1030 hPa Calm     87% 0 mm
06:34 -5.6 °C -7.4 °C 1030.4 hPa Calm     87% 0 mm
06:39 -5.5 °C -7.3 °C 1030.4 hPa Calm     87% 0 mm
06:44 -5.5 °C -7.3 °C 1030.4 hPa Calm     87% 0 mm
06:49 -5.4 °C -7.3 °C 1030.4 hPa Calm     87% 0 mm
06:55 -5.3 °C -7.2 °C 1030.4 hPa Calm     87% 0 mm
07:00 -5.3 °C -7.1 °C 1030.4 hPa West 1.6 km/h 4.8 km/h 87% 0 mm
07:04 -5.1 °C -6.9 °C 1030.4 hPa West 1.6 km/h 4.8 km/h 87% 0 mm
07:10 -5.1 °C -7.1 °C 1030.4 hPa West 1.6 km/h 4.8 km/h 86% 0 mm
07:15 -4.9 °C -6.9 °C 1030.7 hPa West 1.6 km/h 4.8 km/h 86% 0 mm
07:20 -4.9 °C -6.9 °C 1030.7 hPa Calm   3.2 km/h 86% 0 mm
07:25 -4.8 °C -6.8 °C 1030.7 hPa Calm   3.2 km/h 86% 0 mm
07:30 -4.7 °C -6.7 °C 1030.7 hPa WSW 1.6 km/h 4.8 km/h 86% 0 mm
07:34 -4.6 °C -6.7 °C 1030.7 hPa WSW 1.6 km/h 4.8 km/h 85% 0 mm
07:39 -4.6 °C -6.7 °C 1030.7 hPa Calm     85% 0 mm
07:44 -4.4 °C -6.6 °C 1030.7 hPa Calm     85% 0 mm
07:49 -4.4 °C -6.6 °C 1030.7 hPa WSW 1.6 km/h 3.2 km/h 85% 0 mm
07:54 -4.3 °C -6.6 °C 1030.7 hPa West 1.6 km/h 8 km/h 84% 0 mm
07:59 -4.3 °C -6.6 °C 1030.7 hPa West 1.6 km/h 4.8 km/h 84% 0 mm
08:04 -4.2 °C -6.5 °C 1030.7 hPa West 3.2 km/h 4.8 km/h 84% 0 mm
08:09 -4.2 °C -6.4 °C 1030.7 hPa West 3.2 km/h 6.4 km/h 84% 0 mm
08:15 -4.1 °C -6.6 °C 1031 hPa West 3.2 km/h 8 km/h 83% 0 mm
08:20 -4.1 °C -6.5 °C 1031 hPa West 3.2 km/h 8 km/h 83% 0 mm
08:25 -4 °C -6.3 °C 1031 hPa West 1.6 km/h 4.8 km/h 84% 0 mm
08:30 -3.9 °C -6.4 °C 1031 hPa West 1.6 km/h 8 km/h 83% 0 mm
08:35 -3.9 °C -6.3 °C 1031 hPa West 3.2 km/h 8 km/h 83% 0 mm
08:39 -3.8 °C -6.1 °C 1031 hPa Calm   1.6 km/h 84% 0 mm
08:44 -3.7 °C -6.1 °C 1031 hPa Calm   4.8 km/h 83% 0 mm
08:49 -3.6 °C -6 °C 1031 hPa NW 1.6 km/h 3.2 km/h 83% 0 mm
08:54 -3.5 °C -6.1 °C 1031 hPa Calm   3.2 km/h 82% 0 mm
08:59 -3.4 °C -6 °C 1031.4 hPa NW 1.6 km/h 3.2 km/h 82% 0 mm
09:05 -3.3 °C -5.9 °C 1031.4 hPa WNW 3.2 km/h 6.4 km/h 82% 0 mm
09:09 -3.3 °C -5.9 °C 1031.4 hPa WNW 1.6 km/h 6.4 km/h 82% 0 mm
09:14 -3.1 °C -5.7 °C 1031.4 hPa West 1.6 km/h 6.4 km/h 82% 0 mm
09:19 -3 °C -5.8 °C 1031.4 hPa West 1.6 km/h 6.4 km/h 81% 0 mm
09:25 -2.7 °C -5.6 °C 1031.7 hPa Calm   6.4 km/h 81% 0 mm
09:30 -2.6 °C -5.4 °C 1031.7 hPa WNW 1.6 km/h 6.4 km/h 81% 0 mm
09:34 -2.6 °C -5.6 °C 1031.7 hPa Calm   4.8 km/h 80% 0 mm
09:39 -2.4 °C -5.3 °C 1031.7 hPa Calm   4.8 km/h 81% 0 mm
09:44 -2.4 °C -5.4 °C 1031.7 hPa WNW 1.6 km/h 4.8 km/h 80% 0 mm
09:49 -2.4 °C -5.6 °C 1031.7 hPa WNW 3.2 km/h 4.8 km/h 79% 0 mm
09:54 -2.3 °C -5.4 °C 1031.7 hPa WSW 3.2 km/h 4.8 km/h 79% 0 mm
09:59 -2.1 °C -5.4 °C 1031.7 hPa WSW 1.6 km/h 4.8 km/h 78% 0 mm
10:04 -1.9 °C -5.4 °C 1031.7 hPa WSW 3.2 km/h 4.8 km/h 77% 0 mm
10:10 -1.7 °C -5.2 °C 1031.7 hPa WSW 4.8 km/h 6.4 km/h 77% 0 mm
10:15 -1.6 °C -5.4 °C 1031.7 hPa WSW 4.8 km/h 9.7 km/h 75% 0 mm
10:19 -1.6 °C -5.8 °C 1031.7 hPa WSW 4.8 km/h 9.7 km/h 73% 0 mm
10:24 -1.6 °C -5.9 °C 1031.7 hPa WSW 3.2 km/h 9.7 km/h 72% 0 mm
10:29 -1.4 °C -5.4 °C 1031.7 hPa WSW 4.8 km/h 4.8 km/h 74% 0 mm
10:34 -1.3 °C -5.6 °C 1031.7 hPa West 6.4 km/h 8 km/h 73% 0 mm
10:39 -1.2 °C -5.2 °C 1031.7 hPa NW 1.6 km/h 8 km/h 74% 0 mm
10:45 -1.3 °C -5.9 °C 1031.7 hPa West 3.2 km/h 8 km/h 71% 0 mm
10:49 -0.9 °C -5.1 °C 1031.4 hPa SW 4.8 km/h 6.4 km/h 73% 0 mm
10:54 -0.7 °C -5.2 °C 1031.4 hPa West 3.2 km/h 8 km/h 72% 0 mm
10:59 -0.5 °C -5.1 °C 1031.4 hPa West 4.8 km/h 8 km/h 71% 0 mm
11:04 -0.6 °C -5.4 °C 1031 hPa NNW 3.2 km/h 6.4 km/h 70% 0 mm
11:10 -0.7 °C -5.7 °C 1031 hPa WSW 6.4 km/h 8 km/h 69% 0 mm
11:15 -0.8 °C -5.8 °C 1031 hPa SW 4.8 km/h 9.7 km/h 69% 0 mm
11:19 -1 °C -6 °C 1031 hPa SW 4.8 km/h 9.7 km/h 69% 0 mm
11:24 -0.9 °C -5.9 °C 1031 hPa SW 4.8 km/h 9.7 km/h 69% 0 mm
11:29 -0.9 °C -6.1 °C 1031 hPa SW 4.8 km/h 11.3 km/h 68% 0 mm
11:34 -0.8 °C -5.8 °C 1031 hPa SW 4.8 km/h 11.3 km/h 69% 0 mm
11:40 -0.4 °C -5.6 °C 1030.7 hPa WSW 4.8 km/h 12.9 km/h 68% 0 mm
11:44 -0.1 °C -5.3 °C 1030.7 hPa West 3.2 km/h 8 km/h 68% 0 mm
11:49 -0.6 °C -5.9 °C 1030.7 hPa West 3.2 km/h 11.3 km/h 67% 0 mm
11:54 -0.6 °C -5.8 °C 1030.7 hPa NNW 3.2 km/h 8 km/h 68% 0 mm
11:59 -0.5 °C -6.1 °C 1030.7 hPa NNW 1.6 km/h 8 km/h 66% 0 mm
12:04 -0.5 °C -5.7 °C 1030.7 hPa WNW 6.4 km/h 6.4 km/h 68% 0 mm
12:09 -0.3 °C -5.7 °C 1030.7 hPa NNW 1.6 km/h 6.4 km/h 67% 0 mm
12:14 -0.4 °C -6 °C 1030.7 hPa WNW 3.2 km/h 6.4 km/h 66% 0 mm
12:19 -0.5 °C -5.9 °C 1030.4 hPa NW 3.2 km/h 8 km/h 67% 0 mm
12:24 -0.5 °C -6.1 °C 1030.4 hPa NW 3.2 km/h 9.7 km/h 66% 0 mm
12:29 -0.4 °C -5.8 °C 1030.4 hPa NW 4.8 km/h 9.7 km/h 67% 0 mm
12:34 -0.5 °C -5.9 °C 1030.4 hPa WNW 4.8 km/h 11.3 km/h 67% 0 mm
12:40 -0.6 °C -6.1 °C 1030 hPa NW 3.2 km/h 12.9 km/h 66% 0 mm
12:45 -0.5 °C -5.9 °C 1030 hPa WSW 3.2 km/h 8 km/h 67% 0 mm
12:50 -0.6 °C -6 °C 1030 hPa West 3.2 km/h 6.4 km/h 67% 0 mm
12:54 -0.3 °C -5.7 °C 1030 hPa WNW 3.2 km/h 8 km/h 67% 0 mm
12:59 -0.3 °C -6.1 °C 1030 hPa NNW 6.4 km/h 9.7 km/h 65% 0.25 mm
13:04 -0.3 °C -6.1 °C 1030 hPa WNW 3.2 km/h 8 km/h 65% 0.25 mm
13:09 -0.5 °C -6.1 °C 1030 hPa West 1.6 km/h 4.8 km/h 66% 0.25 mm
13:14 -0.3 °C -5.9 °C 1030 hPa West 6.4 km/h 8 km/h 66% 0.25 mm
13:19 -0.5 °C -6.1 °C 1030 hPa WNW 4.8 km/h 8 km/h 66% 0.25 mm
13:24 -0.4 °C -5.8 °C 1030 hPa NW 3.2 km/h 8 km/h 67% 0.25 mm
13:29 -0.5 °C -6.3 °C 1030 hPa WNW 4.8 km/h 9.7 km/h 65% 0.25 mm
13:34 -0.5 °C -6.1 °C 1030 hPa WNW 4.8 km/h 9.7 km/h 66% 0.25 mm
13:39 -0.4 °C -6 °C 1030 hPa West 4.8 km/h 9.7 km/h 66% 0.25 mm
13:40 -0.4 °C -6 °C 1030 hPa WSW 9.7 km/h 9.7 km/h 66% 0.25 mm
13:49 -0.7 °C -6.2 °C 1030 hPa WSW 8 km/h 9.7 km/h 66% 0.25 mm
13:54 -0.7 °C -6.3 °C 1030 hPa West 4.8 km/h 11.3 km/h 66% 0.25 mm
13:59 -0.7 °C -6.1 °C 1030 hPa West 4.8 km/h 11.3 km/h 67% 0 mm
14:04 -0.7 °C -5.7 °C 1030 hPa WSW 4.8 km/h 8 km/h 69% 0 mm
14:09 -0.7 °C -5.4 °C 1030 hPa WSW 3.2 km/h 8 km/h 70% 0 mm
14:14 -0.6 °C -5.6 °C 1030 hPa WNW 6.4 km/h 8 km/h 69% 0 mm
14:19 -0.7 °C -5.7 °C 1030 hPa WSW 6.4 km/h 12.9 km/h 69% 0 mm
14:24 -0.7 °C -5.7 °C 1030 hPa WSW 6.4 km/h 12.9 km/h 69% 0 mm
14:29 -0.7 °C -5.8 °C 1030 hPa WSW 4.8 km/h 11.3 km/h 68% 0 mm
14:34 -0.7 °C -5.8 °C 1030 hPa West 4.8 km/h 11.3 km/h 68% 0 mm
14:39 -0.6 °C -5.6 °C 1030 hPa WSW 4.8 km/h 9.7 km/h 69% 0 mm
14:44 -0.7 °C -5.5 °C 1030 hPa WSW 6.4 km/h 8 km/h 70% 0 mm
14:49 -0.9 °C -5.7 °C 1030 hPa SSE 12.9 km/h 14.5 km/h 70% 0 mm
14:54 -0.9 °C -5.6 °C 1030 hPa SSW 4.8 km/h 11.3 km/h 71% 0 mm
14:59 -0.9 °C -5.7 °C 1030 hPa SW 6.4 km/h 12.9 km/h 70% 0 mm
15:04 -0.9 °C -5.6 °C 1030 hPa SW 6.4 km/h 11.3 km/h 71% 0 mm
15:09 -0.9 °C -5.7 °C 1030 hPa SSW 11.3 km/h 12.9 km/h 70% 0 mm
15:14 -0.9 °C -5.6 °C 1030 hPa SSE 6.4 km/h 11.3 km/h 71% 0 mm
15:19 -1.1 °C -5.4 °C 1030 hPa SSW 11.3 km/h 12.9 km/h 72% 0 mm
15:24 -0.9 °C -5.3 °C 1030 hPa SSW 11.3 km/h 11.3 km/h 72% 0 mm
15:29 -0.9 °C -5.6 °C 1030 hPa SW 8 km/h 12.9 km/h 71% 0 mm
15:34 -1 °C -5.4 °C 1029.7 hPa SW 8 km/h 12.9 km/h 72% 0 mm
15:39 -1.1 °C -5.7 °C 1030 hPa SSW 6.4 km/h 12.9 km/h 71% 0 mm
15:44 -1.1 °C -5.4 °C 1030 hPa SW 6.4 km/h 12.9 km/h 72% 0 mm
15:49 -1.1 °C -5.7 °C 1029.7 hPa SW 6.4 km/h 12.9 km/h 71% 0 mm
15:54 -1.1 °C -5.7 °C 1030 hPa SW 6.4 km/h 9.7 km/h 71% 0 mm
15:59 -1.1 °C -5.9 °C 1030 hPa SW 6.4 km/h 11.3 km/h 70% 0 mm
16:04 -1.2 °C -5.8 °C 1030 hPa SW 4.8 km/h 11.3 km/h 71% 0 mm
16:09 -1.2 °C -6.1 °C 1029.7 hPa SSW 3.2 km/h 8 km/h 69% 0 mm
16:14 -1.2 °C -6 °C 1029.7 hPa SE 4.8 km/h 9.7 km/h 70% 0 mm
16:19 -1.2 °C -6 °C 1030 hPa SSW 8 km/h 9.7 km/h 70% 0 mm
16:24 -1.1 °C -6.1 °C 1030 hPa WNW 1.6 km/h 8 km/h 69% 0 mm
16:29 -1 °C -6 °C 1030 hPa South 6.4 km/h 11.3 km/h 69% 0 mm
16:34 -1 °C -6 °C 1030 hPa SW 4.8 km/h 12.9 km/h 69% 0 mm
16:39 -1.1 °C -5.8 °C 1030 hPa SW 4.8 km/h 12.9 km/h 70% 0 mm
16:44 -1.2 °C -5.9 °C 1030 hPa SW 4.8 km/h 11.3 km/h 70% 0 mm
16:49 -1.3 °C -6.2 °C 1029.7 hPa SSW 3.2 km/h 8 km/h 69% 0 mm
16:54 -1.4 °C -6 °C 1029.7 hPa SW 3.2 km/h 8 km/h 71% 0 mm
16:59 -1.6 °C -6 °C 1030 hPa SW 1.6 km/h 9.7 km/h 72% 0 mm
17:04 -1.8 °C -6 °C 1030 hPa SW 4.8 km/h 9.7 km/h 73% 0 mm
17:09 -1.9 °C -5.9 °C 1030 hPa SW 4.8 km/h 9.7 km/h 74% 0 mm
17:14 -2 °C -6 °C 1030 hPa SSW 4.8 km/h 9.7 km/h 74% 0 mm
17:19 -2.1 °C -5.9 °C 1029.7 hPa SW 1.6 km/h 6.4 km/h 75% 0 mm
17:24 -2.3 °C -6.1 °C 1030 hPa SW 3.2 km/h 4.8 km/h 75% 0 mm
17:29 -2.4 °C -6.1 °C 1030 hPa Calm   8 km/h 76% 0 mm
17:34 -2.6 °C -6.1 °C 1030 hPa WSW 1.6 km/h 8 km/h 77% 0 mm
17:39 -2.7 °C -6.2 °C 1030 hPa Calm   3.2 km/h 77% 0 mm
17:44 -2.8 °C -6.1 °C 1030 hPa Calm   3.2 km/h 78% 0 mm
17:49 -2.9 °C -6.2 °C 1030 hPa Calm   1.6 km/h 78% 0 mm
17:54 -3.1 °C -6.2 °C 1030 hPa Calm     79% 0 mm
17:59 -3.2 °C -6.4 °C 1030 hPa Calm     78% 0 mm
18:04 -3.6 °C -6.7 °C 1030.4 hPa Calm     79% 0 mm
18:09 -3.7 °C -6.4 °C 1030.4 hPa Calm     81% 0 mm
18:14 -3.7 °C -6.6 °C 1030 hPa Calm     80% 0 mm
18:19 -3.9 °C -6.9 °C 1030.4 hPa Calm     80% 0 mm
18:24 -4.1 °C -6.7 °C 1030.4 hPa Calm     82% 0 mm
18:29 -4.2 °C -6.8 °C 1030.4 hPa Calm     82% 0 mm
18:34 -4.3 °C -6.8 °C 1030.4 hPa Calm     83% 0 mm
18:39 -4.4 °C -6.8 °C 1030.4 hPa Calm     83% 0 mm
18:44 -4.7 °C -7.2 °C 1030.4 hPa Calm     83% 0 mm
18:49 -4.8 °C -7.2 °C 1030 hPa Calm     83% 0 mm
18:54 -4.8 °C -7.1 °C 1030 hPa Calm     84% 0 mm
18:59 -4.9 °C -7.2 °C 1030 hPa Calm     84% 0 mm
19:04 -5.1 °C -7.3 °C 1029.7 hPa Calm     84% 0 mm
19:09 -5.2 °C -7.4 °C 1030 hPa Calm     84% 0 mm
19:14 -5.2 °C -7.4 °C 1030 hPa Calm     84% 0 mm
19:19 -5.3 °C -7.6 °C 1030 hPa Calm     84% 0 mm
19:24 -5.2 °C -7.3 °C 1030 hPa Calm     85% 0 mm
19:29 -5.4 °C -7.7 °C 1030 hPa Calm     84% 0 mm
19:34 -5.4 °C -7.6 °C 1030 hPa Calm     85% 0 mm
19:39 -5.4 °C -7.5 °C 1030 hPa Calm     85% 0 mm
19:44 -5.3 °C -7.4 °C 1029.7 hPa Calm     85% 0 mm
19:49 -5.2 °C -7.2 °C 1029.7 hPa Calm     86% 0 mm
19:54 -5.1 °C -7.2 °C 1029.7 hPa Calm     85% 0 mm
19:59 -5.2 °C -7.4 °C 1029.7 hPa Calm     84% 0 mm
20:04 -5.4 °C -7.7 °C 1029.7 hPa Calm     84% 0 mm
20:09 -5.4 °C -7.5 °C 1030 hPa Calm     85% 0 mm
20:14 -5.4 °C -7.6 °C 1030 hPa Calm     85% 0 mm
20:19 -5.6 °C -7.7 °C 1030 hPa Calm     85% 0 mm
20:24 -5.7 °C -7.8 °C 1030 hPa Calm     85% 0 mm
20:29 -5.7 °C -7.6 °C 1029.7 hPa Calm     86% 0 mm
20:34 -5.3 °C -7.2 °C 1029.7 hPa Calm     87% 0 mm
20:39 -5.4 °C -7.4 °C 1029.7 hPa Calm     86% 0 mm
20:44 -5.7 °C -7.7 °C 1029.7 hPa Calm     86% 0 mm
20:49 -5.7 °C -7.7 °C 1029.7 hPa Calm     86% 0 mm
20:54 -5.6 °C -7.5 °C 1029.7 hPa Calm     86% 0 mm
20:59 -5.5 °C -7.4 °C 1029.7 hPa Calm     86% 0 mm
21:04 -5.7 °C -7.6 °C 1030 hPa Calm     86% 0 mm
21:10 -5.6 °C -7.4 °C 1029.7 hPa Calm     87% 0 mm
21:19 -5.6 °C -7.4 °C 1030 hPa Calm     87% 0 mm
21:24 -5.7 °C -7.7 °C 1030 hPa Calm     86% 0 mm
21:29 -5.8 °C -7.7 °C 1030 hPa Calm     87% 0 mm
21:34 -5.8 °C -7.7 °C 1030 hPa Calm     87% 0 mm
21:39 -5.9 °C -7.8 °C 1030 hPa Calm     87% 0 mm
21:44 -5.8 °C -7.7 °C 1030 hPa Calm     87% 0 mm
21:49 -5.8 °C -7.5 °C 1030 hPa Calm     88% 0 mm
21:54 -5.8 °C -7.7 °C 1030 hPa Calm     87% 0 mm
21:59 -5.8 °C -7.4 °C 1030 hPa Calm     88% 0 mm
22:04 -5.7 °C -7.4 °C 1030 hPa Calm     88% 0 mm
22:09 -5.7 °C -7.6 °C 1030 hPa Calm     87% 0 mm
22:14 -5.8 °C -7.6 °C 1029.7 hPa Calm     87% 0 mm
22:19 -6.1 °C -8.1 °C 1029.7 hPa Calm     86% 0 mm
22:24 -6.2 °C -8.1 °C 1029.7 hPa Calm   4.8 km/h 87% 0 mm
22:29 -6.1 °C -7.7 °C 1029.7 hPa South 1.6 km/h 6.4 km/h 88% 0 mm
22:34 -5.9 °C -7.6 °C 1029.7 hPa Calm   3.2 km/h 88% 0 mm
22:39 -5.8 °C -7.5 °C 1029.7 hPa Calm     88% 0 mm
22:44 -5.8 °C -7.7 °C 1029.7 hPa Calm   3.2 km/h 87% 0 mm
22:49 -5.8 °C -7.7 °C 1029.7 hPa Calm   4.8 km/h 87% 0 mm
22:54 -6 °C -7.8 °C 1029.7 hPa South 1.6 km/h 4.8 km/h 87% 0 mm
22:59 -6.1 °C -7.9 °C 1029.7 hPa Calm   1.6 km/h 87% 0 mm
23:04 -6.2 °C -8.1 °C 1029.7 hPa Calm   1.6 km/h 87% 0 mm
23:09 -6.3 °C -8.2 °C 1029.7 hPa Calm     87% 0 mm
23:14 -6.6 °C -8.3 °C 1029.7 hPa Calm     87% 0 mm
23:19 -6.6 °C -8.4 °C 1029.7 hPa Calm   1.6 km/h 87% 0 mm
23:24 -6.6 °C -8.4 °C 1029.7 hPa Calm   3.2 km/h 87% 0 mm
23:29 -6.6 °C -8.3 °C 1029.7 hPa Calm     88% 0 mm
23:34 -6.6 °C -8.3 °C 1029.7 hPa Calm     88% 0 mm
23:39 -6.6 °C -8.2 °C 1029.7 hPa Calm     88% 0 mm
23:44 -6.6 °C -8.3 °C 1029.7 hPa Calm     88% 0 mm
23:49 -6.7 °C -8.3 °C 1029.7 hPa Calm     88% 0 mm
23:54 -6.4 °C -8.1 °C 1029.7 hPa Calm     88% 0 mm
23:59 -6.4 °C -8.1 °C 1029.3 hPa Calm     88% 0 mm
Buffalo, New York, USA
Compliments of Weather Underground - 2.5 mb